sensor_id;sensor_type;location;lat;lon;timestamp;P1;durP1;ratioP1;P2;durP2;ratioP2
20709;SDS011;10516;51.518;9.864;2023-07-31T00:00:29;2.88;;;1.80;;
20709;SDS011;10516;51.518;9.864;2023-07-31T00:02:55;3.80;;;1.52;;
20709;SDS011;10516;51.518;9.864;2023-07-31T00:05:20;5.53;;;1.85;;
20709;SDS011;10516;51.518;9.864;2023-07-31T00:07:46;2.45;;;1.65;;
20709;SDS011;10516;51.518;9.864;2023-07-31T00:10:12;4.75;;;1.55;;
20709;SDS011;10516;51.518;9.864;2023-07-31T00:12:38;2.03;;;1.75;;
20709;SDS011;10516;51.518;9.864;2023-07-31T00:15:05;3.55;;;2.08;;
20709;SDS011;10516;51.518;9.864;2023-07-31T00:17:32;4.43;;;1.63;;
20709;SDS011;10516;51.518;9.864;2023-07-31T00:19:57;5.10;;;2.45;;
20709;SDS011;10516;51.518;9.864;2023-07-31T00:22:22;4.80;;;1.73;;
20709;SDS011;10516;51.518;9.864;2023-07-31T00:24:48;3.95;;;2.20;;
20709;SDS011;10516;51.518;9.864;2023-07-31T00:27:13;5.00;;;2.10;;
20709;SDS011;10516;51.518;9.864;2023-07-31T00:29:39;4.53;;;2.10;;
20709;SDS011;10516;51.518;9.864;2023-07-31T00:32:04;3.42;;;2.20;;
20709;SDS011;10516;51.518;9.864;2023-07-31T00:34:30;5.22;;;2.42;;
20709;SDS011;10516;51.518;9.864;2023-07-31T00:36:55;8.10;;;2.25;;
20709;SDS011;10516;51.518;9.864;2023-07-31T00:39:21;3.92;;;2.70;;
20709;SDS011;10516;51.518;9.864;2023-07-31T00:41:46;5.10;;;2.28;;
20709;SDS011;10516;51.518;9.864;2023-07-31T00:44:11;4.43;;;2.22;;
20709;SDS011;10516;51.518;9.864;2023-07-31T00:46:37;3.70;;;2.20;;
20709;SDS011;10516;51.518;9.864;2023-07-31T00:49:02;3.60;;;2.13;;
20709;SDS011;10516;51.518;9.864;2023-07-31T00:51:29;3.47;;;2.47;;
20709;SDS011;10516;51.518;9.864;2023-07-31T00:53:54;3.90;;;2.30;;
20709;SDS011;10516;51.518;9.864;2023-07-31T00:56:20;3.78;;;2.20;;
20709;SDS011;10516;51.518;9.864;2023-07-31T00:58:47;4.03;;;2.25;;
20709;SDS011;10516;51.518;9.864;2023-07-31T01:01:12;8.52;;;2.85;;
20709;SDS011;10516;51.518;9.864;2023-07-31T01:03:37;2.42;;;2.22;;
20709;SDS011;10516;51.518;9.864;2023-07-31T01:06:09;5.18;;;3.08;;
20709;SDS011;10516;51.518;9.864;2023-07-31T01:11:16;5.43;;;2.47;;
20709;SDS011;10516;51.518;9.864;2023-07-31T01:13:46;5.13;;;3.03;;
20709;SDS011;10516;51.518;9.864;2023-07-31T01:16:12;4.47;;;3.00;;
20709;SDS011;10516;51.518;9.864;2023-07-31T01:18:38;6.65;;;2.90;;
20709;SDS011;10516;51.518;9.864;2023-07-31T01:21:06;4.03;;;2.42;;
20709;SDS011;10516;51.518;9.864;2023-07-31T01:23:58;5.45;;;2.42;;
20709;SDS011;10516;51.518;9.864;2023-07-31T01:26:33;3.40;;;2.42;;
20709;SDS011;10516;51.518;9.864;2023-07-31T01:29:03;7.13;;;3.10;;
20709;SDS011;10516;51.518;9.864;2023-07-31T01:31:39;5.22;;;2.72;;
20709;SDS011;10516;51.518;9.864;2023-07-31T01:34:07;4.47;;;2.55;;
20709;SDS011;10516;51.518;9.864;2023-07-31T01:36:35;8.65;;;2.70;;
20709;SDS011;10516;51.518;9.864;2023-07-31T01:39:01;7.45;;;3.08;;
20709;SDS011;10516;51.518;9.864;2023-07-31T01:41:27;5.25;;;2.65;;
20709;SDS011;10516;51.518;9.864;2023-07-31T01:43:52;5.68;;;2.63;;
20709;SDS011;10516;51.518;9.864;2023-07-31T01:46:18;5.10;;;3.10;;
20709;SDS011;10516;51.518;9.864;2023-07-31T01:48:43;6.82;;;3.00;;
20709;SDS011;10516;51.518;9.864;2023-07-31T01:51:08;6.20;;;3.25;;
20709;SDS011;10516;51.518;9.864;2023-07-31T01:53:34;5.55;;;2.92;;
20709;SDS011;10516;51.518;9.864;2023-07-31T01:55:59;6.68;;;3.30;;
20709;SDS011;10516;51.518;9.864;2023-07-31T01:58:25;5.00;;;2.50;;
20709;SDS011;10516;51.518;9.864;2023-07-31T02:00:50;7.70;;;3.58;;
20709;SDS011;10516;51.518;9.864;2023-07-31T02:03:15;6.43;;;3.05;;
20709;SDS011;10516;51.518;9.864;2023-07-31T02:05:47;6.28;;;2.67;;
20709;SDS011;10516;51.518;9.864;2023-07-31T02:08:14;6.80;;;3.28;;
20709;SDS011;10516;51.518;9.864;2023-07-31T02:10:40;6.40;;;3.03;;
20709;SDS011;10516;51.518;9.864;2023-07-31T02:13:05;5.05;;;3.10;;
20709;SDS011;10516;51.518;9.864;2023-07-31T02:15:31;5.28;;;3.35;;
20709;SDS011;10516;51.518;9.864;2023-07-31T02:17:56;5.22;;;2.78;;
20709;SDS011;10516;51.518;9.864;2023-07-31T02:20:22;6.13;;;2.97;;
20709;SDS011;10516;51.518;9.864;2023-07-31T02:22:47;4.20;;;3.28;;
20709;SDS011;10516;51.518;9.864;2023-07-31T02:25:13;5.50;;;3.53;;
20709;SDS011;10516;51.518;9.864;2023-07-31T02:27:38;4.10;;;2.63;;
20709;SDS011;10516;51.518;9.864;2023-07-31T02:30:04;4.80;;;2.88;;
20709;SDS011;10516;51.518;9.864;2023-07-31T02:32:29;6.05;;;3.10;;
20709;SDS011;10516;51.518;9.864;2023-07-31T02:34:55;4.10;;;2.72;;
20709;SDS011;10516;51.518;9.864;2023-07-31T02:37:20;6.80;;;2.85;;
20709;SDS011;10516;51.518;9.864;2023-07-31T02:39:45;6.55;;;2.78;;
20709;SDS011;10516;51.518;9.864;2023-07-31T02:42:11;8.98;;;3.90;;
20709;SDS011;10516;51.518;9.864;2023-07-31T02:44:36;3.83;;;2.30;;
20709;SDS011;10516;51.518;9.864;2023-07-31T02:47:02;7.47;;;3.10;;
20709;SDS011;10516;51.518;9.864;2023-07-31T02:49:28;5.63;;;2.85;;
20709;SDS011;10516;51.518;9.864;2023-07-31T02:51:53;3.88;;;2.80;;
20709;SDS011;10516;51.518;9.864;2023-07-31T02:54:18;5.05;;;2.90;;
20709;SDS011;10516;51.518;9.864;2023-07-31T02:56:46;4.93;;;2.35;;
20709;SDS011;10516;51.518;9.864;2023-07-31T02:59:12;6.00;;;3.15;;
20709;SDS011;10516;51.518;9.864;2023-07-31T03:01:37;4.68;;;2.80;;
20709;SDS011;10516;51.518;9.864;2023-07-31T03:04:03;7.80;;;2.78;;
20709;SDS011;10516;51.518;9.864;2023-07-31T03:06:28;4.32;;;2.97;;
20709;SDS011;10516;51.518;9.864;2023-07-31T03:08:54;5.43;;;3.08;;
20709;SDS011;10516;51.518;9.864;2023-07-31T03:11:19;5.68;;;3.10;;
20709;SDS011;10516;51.518;9.864;2023-07-31T03:13:44;4.00;;;2.95;;
20709;SDS011;10516;51.518;9.864;2023-07-31T03:16:10;6.28;;;3.08;;
20709;SDS011;10516;51.518;9.864;2023-07-31T03:18:35;10.13;;;3.00;;
20709;SDS011;10516;51.518;9.864;2023-07-31T03:21:00;4.15;;;2.90;;
20709;SDS011;10516;51.518;9.864;2023-07-31T03:23:26;4.95;;;2.88;;
20709;SDS011;10516;51.518;9.864;2023-07-31T03:25:58;5.78;;;2.50;;
20709;SDS011;10516;51.518;9.864;2023-07-31T03:28:24;5.63;;;3.10;;
20709;SDS011;10516;51.518;9.864;2023-07-31T03:30:50;5.78;;;3.25;;
20709;SDS011;10516;51.518;9.864;2023-07-31T03:33:16;3.83;;;2.72;;
20709;SDS011;10516;51.518;9.864;2023-07-31T03:35:41;5.68;;;3.90;;
20709;SDS011;10516;51.518;9.864;2023-07-31T03:38:06;5.13;;;3.85;;
20709;SDS011;10516;51.518;9.864;2023-07-31T03:40:32;5.68;;;3.83;;
20709;SDS011;10516;51.518;9.864;2023-07-31T03:42:57;4.57;;;3.08;;
20709;SDS011;10516;51.518;9.864;2023-07-31T03:45:23;8.23;;;3.42;;
20709;SDS011;10516;51.518;9.864;2023-07-31T03:47:48;5.03;;;3.67;;
20709;SDS011;10516;51.518;9.864;2023-07-31T03:50:13;6.32;;;4.10;;
20709;SDS011;10516;51.518;9.864;2023-07-31T03:52:40;6.43;;;3.42;;
20709;SDS011;10516;51.518;9.864;2023-07-31T03:55:06;7.07;;;3.75;;
20709;SDS011;10516;51.518;9.864;2023-07-31T03:57:32;6.88;;;3.67;;
20709;SDS011;10516;51.518;9.864;2023-07-31T03:59:57;8.13;;;4.15;;
20709;SDS011;10516;51.518;9.864;2023-07-31T04:02:23;5.75;;;3.88;;
20709;SDS011;10516;51.518;9.864;2023-07-31T04:04:49;6.07;;;3.40;;
20709;SDS011;10516;51.518;9.864;2023-07-31T04:07:14;8.32;;;4.38;;
20709;SDS011;10516;51.518;9.864;2023-07-31T04:09:39;26.65;;;5.63;;
20709;SDS011;10516;51.518;9.864;2023-07-31T04:12:05;18.20;;;4.60;;
20709;SDS011;10516;51.518;9.864;2023-07-31T04:14:30;16.23;;;3.78;;
20709;SDS011;10516;51.518;9.864;2023-07-31T04:16:55;12.63;;;4.13;;
20709;SDS011;10516;51.518;9.864;2023-07-31T04:19:21;8.50;;;4.10;;
20709;SDS011;10516;51.518;9.864;2023-07-31T04:21:46;6.75;;;3.67;;
20709;SDS011;10516;51.518;9.864;2023-07-31T04:24:12;8.27;;;3.25;;
20709;SDS011;10516;51.518;9.864;2023-07-31T04:26:37;7.78;;;4.05;;
20709;SDS011;10516;51.518;9.864;2023-07-31T04:29:02;10.57;;;4.10;;
20709;SDS011;10516;51.518;9.864;2023-07-31T04:31:28;7.20;;;4.80;;
20709;SDS011;10516;51.518;9.864;2023-07-31T04:33:53;7.97;;;5.00;;
20709;SDS011;10516;51.518;9.864;2023-07-31T04:36:18;7.82;;;4.53;;
20709;SDS011;10516;51.518;9.864;2023-07-31T04:38:44;6.53;;;3.97;;
20709;SDS011;10516;51.518;9.864;2023-07-31T04:41:09;6.80;;;4.18;;
20709;SDS011;10516;51.518;9.864;2023-07-31T04:43:34;7.00;;;4.53;;
20709;SDS011;10516;51.518;9.864;2023-07-31T04:46:00;5.45;;;3.70;;
20709;SDS011;10516;51.518;9.864;2023-07-31T04:48:25;6.28;;;3.58;;
20709;SDS011;10516;51.518;9.864;2023-07-31T04:50:50;6.35;;;4.22;;
20709;SDS011;10516;51.518;9.864;2023-07-31T04:53:16;11.27;;;4.40;;
20709;SDS011;10516;51.518;9.864;2023-07-31T04:55:41;6.80;;;3.67;;
20709;SDS011;10516;51.518;9.864;2023-07-31T04:58:07;5.47;;;4.00;;
20709;SDS011;10516;51.518;9.864;2023-07-31T05:00:32;7.57;;;4.10;;
20709;SDS011;10516;51.518;9.864;2023-07-31T05:02:57;5.07;;;3.83;;
20709;SDS011;10516;51.518;9.864;2023-07-31T05:05:23;6.88;;;4.00;;
20709;SDS011;10516;51.518;9.864;2023-07-31T05:07:48;6.25;;;3.88;;
20709;SDS011;10516;51.518;9.864;2023-07-31T05:10:14;12.15;;;4.35;;
20709;SDS011;10516;51.518;9.864;2023-07-31T05:12:39;4.47;;;3.83;;
20709;SDS011;10516;51.518;9.864;2023-07-31T05:15:04;7.82;;;3.78;;
20709;SDS011;10516;51.518;9.864;2023-07-31T05:17:30;6.25;;;3.63;;
20709;SDS011;10516;51.518;9.864;2023-07-31T05:19:56;10.05;;;3.97;;
20709;SDS011;10516;51.518;9.864;2023-07-31T05:22:21;4.28;;;3.25;;
20709;SDS011;10516;51.518;9.864;2023-07-31T05:24:46;5.32;;;3.38;;
20709;SDS011;10516;51.518;9.864;2023-07-31T05:27:12;5.38;;;3.47;;
20709;SDS011;10516;51.518;9.864;2023-07-31T05:29:40;6.53;;;3.50;;
20709;SDS011;10516;51.518;9.864;2023-07-31T05:32:05;4.53;;;3.38;;
20709;SDS011;10516;51.518;9.864;2023-07-31T05:34:31;7.82;;;4.22;;
20709;SDS011;10516;51.518;9.864;2023-07-31T05:36:56;4.97;;;3.08;;
20709;SDS011;10516;51.518;9.864;2023-07-31T05:39:22;5.88;;;3.00;;
20709;SDS011;10516;51.518;9.864;2023-07-31T05:41:47;8.88;;;3.40;;
20709;SDS011;10516;51.518;9.864;2023-07-31T05:44:13;8.48;;;3.83;;
20709;SDS011;10516;51.518;9.864;2023-07-31T05:46:38;5.43;;;3.67;;
20709;SDS011;10516;51.518;9.864;2023-07-31T05:49:03;5.25;;;3.40;;
20709;SDS011;10516;51.518;9.864;2023-07-31T05:51:29;7.75;;;3.88;;
20709;SDS011;10516;51.518;9.864;2023-07-31T05:53:54;6.30;;;3.97;;
20709;SDS011;10516;51.518;9.864;2023-07-31T05:56:19;6.47;;;3.58;;
20709;SDS011;10516;51.518;9.864;2023-07-31T05:58:45;7.43;;;4.35;;
20709;SDS011;10516;51.518;9.864;2023-07-31T06:01:10;7.60;;;3.67;;
20709;SDS011;10516;51.518;9.864;2023-07-31T06:03:35;6.65;;;3.70;;
20709;SDS011;10516;51.518;9.864;2023-07-31T06:06:01;4.72;;;3.30;;
20709;SDS011;10516;51.518;9.864;2023-07-31T06:08:26;3.92;;;3.22;;
20709;SDS011;10516;51.518;9.864;2023-07-31T06:10:52;8.93;;;4.10;;
20709;SDS011;10516;51.518;9.864;2023-07-31T06:13:17;6.80;;;4.32;;
20709;SDS011;10516;51.518;9.864;2023-07-31T06:15:42;6.32;;;4.03;;
20709;SDS011;10516;51.518;9.864;2023-07-31T06:18:08;6.65;;;3.97;;
20709;SDS011;10516;51.518;9.864;2023-07-31T06:20:34;4.07;;;3.25;;
20709;SDS011;10516;51.518;9.864;2023-07-31T06:22:59;5.65;;;3.55;;
20709;SDS011;10516;51.518;9.864;2023-07-31T06:25:25;5.55;;;3.85;;
20709;SDS011;10516;51.518;9.864;2023-07-31T06:27:50;5.68;;;3.70;;
20709;SDS011;10516;51.518;9.864;2023-07-31T06:30:16;8.18;;;4.18;;
20709;SDS011;10516;51.518;9.864;2023-07-31T06:32:42;6.75;;;3.72;;
20709;SDS011;10516;51.518;9.864;2023-07-31T06:35:08;6.55;;;3.70;;
20709;SDS011;10516;51.518;9.864;2023-07-31T06:37:33;6.85;;;3.80;;
20709;SDS011;10516;51.518;9.864;2023-07-31T06:39:59;6.95;;;4.28;;
20709;SDS011;10516;51.518;9.864;2023-07-31T06:42:24;5.75;;;3.90;;
20709;SDS011;10516;51.518;9.864;2023-07-31T06:44:49;8.32;;;4.18;;
20709;SDS011;10516;51.518;9.864;2023-07-31T06:47:15;5.97;;;3.95;;
20709;SDS011;10516;51.518;9.864;2023-07-31T06:49:40;10.27;;;4.35;;
20709;SDS011;10516;51.518;9.864;2023-07-31T06:52:06;8.30;;;3.85;;
20709;SDS011;10516;51.518;9.864;2023-07-31T06:54:31;5.25;;;3.63;;
20709;SDS011;10516;51.518;9.864;2023-07-31T06:56:57;7.45;;;4.57;;
20709;SDS011;10516;51.518;9.864;2023-07-31T06:59:22;5.25;;;3.58;;
20709;SDS011;10516;51.518;9.864;2023-07-31T07:01:47;9.25;;;4.95;;
20709;SDS011;10516;51.518;9.864;2023-07-31T07:04:13;10.40;;;4.13;;
20709;SDS011;10516;51.518;9.864;2023-07-31T07:06:40;7.43;;;3.55;;
20709;SDS011;10516;51.518;9.864;2023-07-31T07:09:06;6.38;;;3.55;;
20709;SDS011;10516;51.518;9.864;2023-07-31T07:11:31;5.50;;;3.53;;
20709;SDS011;10516;51.518;9.864;2023-07-31T07:13:56;6.72;;;4.22;;
20709;SDS011;10516;51.518;9.864;2023-07-31T07:16:22;7.70;;;4.28;;
20709;SDS011;10516;51.518;9.864;2023-07-31T07:18:47;6.20;;;4.07;;
20709;SDS011;10516;51.518;9.864;2023-07-31T07:21:12;6.03;;;3.78;;
20709;SDS011;10516;51.518;9.864;2023-07-31T07:23:40;5.03;;;3.33;;
20709;SDS011;10516;51.518;9.864;2023-07-31T07:26:06;5.80;;;3.60;;
20709;SDS011;10516;51.518;9.864;2023-07-31T07:28:32;6.25;;;3.17;;
20709;SDS011;10516;51.518;9.864;2023-07-31T07:30:57;10.13;;;3.72;;
20709;SDS011;10516;51.518;9.864;2023-07-31T07:33:23;9.15;;;4.25;;
20709;SDS011;10516;51.518;9.864;2023-07-31T07:35:48;6.78;;;3.22;;
20709;SDS011;10516;51.518;9.864;2023-07-31T07:38:14;4.72;;;3.15;;
20709;SDS011;10516;51.518;9.864;2023-07-31T07:40:40;4.95;;;3.72;;
20709;SDS011;10516;51.518;9.864;2023-07-31T07:43:05;10.82;;;3.85;;
20709;SDS011;10516;51.518;9.864;2023-07-31T07:45:31;6.25;;;3.40;;
20709;SDS011;10516;51.518;9.864;2023-07-31T07:47:56;6.38;;;3.40;;
20709;SDS011;10516;51.518;9.864;2023-07-31T07:50:22;6.07;;;4.18;;
20709;SDS011;10516;51.518;9.864;2023-07-31T07:52:48;7.65;;;3.60;;
20709;SDS011;10516;51.518;9.864;2023-07-31T07:55:13;7.30;;;3.50;;
20709;SDS011;10516;51.518;9.864;2023-07-31T07:57:39;6.45;;;3.67;;
20709;SDS011;10516;51.518;9.864;2023-07-31T08:00:04;6.68;;;3.63;;
20709;SDS011;10516;51.518;9.864;2023-07-31T08:02:30;6.07;;;3.28;;
20709;SDS011;10516;51.518;9.864;2023-07-31T08:04:56;6.18;;;3.50;;
20709;SDS011;10516;51.518;9.864;2023-07-31T08:07:21;4.35;;;3.35;;
20709;SDS011;10516;51.518;9.864;2023-07-31T08:09:48;5.38;;;2.97;;
20709;SDS011;10516;51.518;9.864;2023-07-31T08:12:13;4.35;;;2.90;;
20709;SDS011;10516;51.518;9.864;2023-07-31T08:14:38;5.45;;;3.03;;
20709;SDS011;10516;51.518;9.864;2023-07-31T08:17:04;4.63;;;3.10;;
20709;SDS011;10516;51.518;9.864;2023-07-31T08:19:29;4.60;;;3.53;;
20709;SDS011;10516;51.518;9.864;2023-07-31T08:21:55;7.40;;;3.72;;
20709;SDS011;10516;51.518;9.864;2023-07-31T08:24:20;6.45;;;3.33;;
20709;SDS011;10516;51.518;9.864;2023-07-31T08:26:46;6.45;;;3.58;;
20709;SDS011;10516;51.518;9.864;2023-07-31T08:29:14;6.93;;;3.88;;
20709;SDS011;10516;51.518;9.864;2023-07-31T08:31:39;6.47;;;3.50;;
20709;SDS011;10516;51.518;9.864;2023-07-31T08:34:04;8.25;;;4.30;;
20709;SDS011;10516;51.518;9.864;2023-07-31T08:36:30;5.18;;;3.80;;
20709;SDS011;10516;51.518;9.864;2023-07-31T08:38:55;5.88;;;3.92;;
20709;SDS011;10516;51.518;9.864;2023-07-31T08:41:21;5.78;;;3.95;;
20709;SDS011;10516;51.518;9.864;2023-07-31T08:43:46;6.32;;;3.80;;
20709;SDS011;10516;51.518;9.864;2023-07-31T08:46:11;7.70;;;4.75;;
20709;SDS011;10516;51.518;9.864;2023-07-31T08:48:39;7.38;;;3.75;;
20709;SDS011;10516;51.518;9.864;2023-07-31T08:51:06;6.25;;;3.45;;
20709;SDS011;10516;51.518;9.864;2023-07-31T08:53:32;7.72;;;4.03;;
20709;SDS011;10516;51.518;9.864;2023-07-31T08:55:58;7.93;;;4.18;;
20709;SDS011;10516;51.518;9.864;2023-07-31T08:58:24;9.30;;;4.85;;
20709;SDS011;10516;51.518;9.864;2023-07-31T09:00:50;9.93;;;4.25;;
20709;SDS011;10516;51.518;9.864;2023-07-31T09:03:17;7.55;;;4.57;;
20709;SDS011;10516;51.518;9.864;2023-07-31T09:05:44;7.45;;;4.30;;
20709;SDS011;10516;51.518;9.864;2023-07-31T09:08:12;10.02;;;4.15;;
20709;SDS011;10516;51.518;9.864;2023-07-31T09:10:41;10.82;;;4.93;;
20709;SDS011;10516;51.518;9.864;2023-07-31T09:13:08;8.27;;;4.30;;
20709;SDS011;10516;51.518;9.864;2023-07-31T09:15:34;7.53;;;4.15;;
20709;SDS011;10516;51.518;9.864;2023-07-31T09:18:01;7.68;;;4.20;;
20709;SDS011;10516;51.518;9.864;2023-07-31T09:20:27;6.15;;;4.20;;
20709;SDS011;10516;51.518;9.864;2023-07-31T09:22:53;5.90;;;3.75;;
20709;SDS011;10516;51.518;9.864;2023-07-31T09:25:23;6.75;;;4.35;;
20709;SDS011;10516;51.518;9.864;2023-07-31T09:27:54;11.65;;;4.50;;
20709;SDS011;10516;51.518;9.864;2023-07-31T09:30:22;6.28;;;3.67;;
20709;SDS011;10516;51.518;9.864;2023-07-31T09:32:49;5.53;;;4.05;;
20709;SDS011;10516;51.518;9.864;2023-07-31T09:37:40;8.32;;;4.55;;
20709;SDS011;10516;51.518;9.864;2023-07-31T09:40:06;8.80;;;4.05;;
20709;SDS011;10516;51.518;9.864;2023-07-31T09:42:32;7.15;;;3.72;;
20709;SDS011;10516;51.518;9.864;2023-07-31T09:45:08;6.53;;;3.75;;
20709;SDS011;10516;51.518;9.864;2023-07-31T09:47:34;4.63;;;3.67;;
20709;SDS011;10516;51.518;9.864;2023-07-31T09:50:00;5.05;;;3.60;;
20709;SDS011;10516;51.518;9.864;2023-07-31T09:52:26;9.57;;;5.00;;
20709;SDS011;10516;51.518;9.864;2023-07-31T09:54:52;8.55;;;4.15;;
20709;SDS011;10516;51.518;9.864;2023-07-31T09:57:17;6.28;;;4.03;;
20709;SDS011;10516;51.518;9.864;2023-07-31T09:59:47;7.38;;;3.83;;
20709;SDS011;10516;51.518;9.864;2023-07-31T10:02:14;7.50;;;3.83;;
20709;SDS011;10516;51.518;9.864;2023-07-31T10:04:45;7.90;;;3.97;;
20709;SDS011;10516;51.518;9.864;2023-07-31T10:07:14;6.25;;;4.00;;
20709;SDS011;10516;51.518;9.864;2023-07-31T10:09:42;7.72;;;3.88;;
20709;SDS011;10516;51.518;9.864;2023-07-31T10:12:07;7.93;;;4.88;;
20709;SDS011;10516;51.518;9.864;2023-07-31T10:14:37;5.80;;;3.70;;
20709;SDS011;10516;51.518;9.864;2023-07-31T10:17:03;7.38;;;4.40;;
20709;SDS011;10516;51.518;9.864;2023-07-31T10:19:31;4.80;;;3.70;;
20709;SDS011;10516;51.518;9.864;2023-07-31T10:21:57;6.18;;;3.58;;
20709;SDS011;10516;51.518;9.864;2023-07-31T10:24:23;5.78;;;3.83;;
20709;SDS011;10516;51.518;9.864;2023-07-31T10:26:50;28.05;;;4.75;;
20709;SDS011;10516;51.518;9.864;2023-07-31T10:29:18;7.78;;;3.97;;
20709;SDS011;10516;51.518;9.864;2023-07-31T10:31:45;5.43;;;3.58;;
20709;SDS011;10516;51.518;9.864;2023-07-31T10:34:12;4.18;;;3.78;;
20709;SDS011;10516;51.518;9.864;2023-07-31T10:36:39;5.97;;;4.07;;
20709;SDS011;10516;51.518;9.864;2023-07-31T10:39:04;5.85;;;4.22;;
20709;SDS011;10516;51.518;9.864;2023-07-31T10:42:00;4.97;;;3.40;;
20709;SDS011;10516;51.518;9.864;2023-07-31T10:44:34;7.53;;;3.85;;
20709;SDS011;10516;51.518;9.864;2023-07-31T10:47:00;6.70;;;4.43;;
20709;SDS011;10516;51.518;9.864;2023-07-31T10:49:27;9.25;;;4.18;;
20709;SDS011;10516;51.518;9.864;2023-07-31T10:51:56;7.40;;;4.55;;
20709;SDS011;10516;51.518;9.864;2023-07-31T10:54:22;7.70;;;4.78;;
20709;SDS011;10516;51.518;9.864;2023-07-31T10:56:50;6.97;;;4.72;;
20709;SDS011;10516;51.518;9.864;2023-07-31T10:59:17;6.13;;;3.58;;
20709;SDS011;10516;51.518;9.864;2023-07-31T11:01:56;10.68;;;4.35;;
20709;SDS011;10516;51.518;9.864;2023-07-31T11:04:27;8.38;;;4.22;;
20709;SDS011;10516;51.518;9.864;2023-07-31T11:06:57;10.32;;;4.55;;
20709;SDS011;10516;51.518;9.864;2023-07-31T11:09:24;7.20;;;3.92;;
20709;SDS011;10516;51.518;9.864;2023-07-31T11:11:53;7.63;;;4.57;;
20709;SDS011;10516;51.518;9.864;2023-07-31T11:14:19;6.35;;;4.57;;
20709;SDS011;10516;51.518;9.864;2023-07-31T11:16:45;6.47;;;4.18;;
20709;SDS011;10516;51.518;9.864;2023-07-31T11:19:10;9.23;;;4.70;;
20709;SDS011;10516;51.518;9.864;2023-07-31T11:21:36;8.13;;;4.03;;
20709;SDS011;10516;51.518;9.864;2023-07-31T11:24:01;7.07;;;4.05;;
20709;SDS011;10516;51.518;9.864;2023-07-31T11:26:27;6.78;;;4.18;;
20709;SDS011;10516;51.518;9.864;2023-07-31T11:28:52;8.85;;;4.45;;
20709;SDS011;10516;51.518;9.864;2023-07-31T11:31:18;10.10;;;4.88;;
20709;SDS011;10516;51.518;9.864;2023-07-31T11:33:44;8.75;;;3.75;;
20709;SDS011;10516;51.518;9.864;2023-07-31T11:36:16;11.95;;;5.38;;
20709;SDS011;10516;51.518;9.864;2023-07-31T11:38:42;8.50;;;4.47;;
20709;SDS011;10516;51.518;9.864;2023-07-31T11:41:08;6.88;;;4.32;;
20709;SDS011;10516;51.518;9.864;2023-07-31T11:43:34;9.82;;;4.32;;
20709;SDS011;10516;51.518;9.864;2023-07-31T11:46:01;8.45;;;4.28;;
20709;SDS011;10516;51.518;9.864;2023-07-31T11:48:32;10.55;;;5.00;;
20709;SDS011;10516;51.518;9.864;2023-07-31T11:51:01;8.70;;;4.50;;
20709;SDS011;10516;51.518;9.864;2023-07-31T11:55:57;7.75;;;4.18;;
20709;SDS011;10516;51.518;9.864;2023-07-31T11:58:24;5.82;;;3.85;;
20709;SDS011;10516;51.518;9.864;2023-07-31T12:00:50;6.35;;;4.07;;
20709;SDS011;10516;51.518;9.864;2023-07-31T12:03:16;7.03;;;3.20;;
20709;SDS011;10516;51.518;9.864;2023-07-31T12:05:41;11.75;;;4.38;;
20709;SDS011;10516;51.518;9.864;2023-07-31T12:08:11;8.15;;;4.20;;
20709;SDS011;10516;51.518;9.864;2023-07-31T12:10:36;6.85;;;4.03;;
20709;SDS011;10516;51.518;9.864;2023-07-31T12:18:10;6.35;;;4.00;;
20709;SDS011;10516;51.518;9.864;2023-07-31T12:20:47;5.22;;;3.58;;
20709;SDS011;10516;51.518;9.864;2023-07-31T12:23:18;6.25;;;3.67;;
20709;SDS011;10516;51.518;9.864;2023-07-31T12:26:06;5.35;;;3.40;;
20709;SDS011;10516;51.518;9.864;2023-07-31T12:31:11;7.85;;;3.83;;
20709;SDS011;10516;51.518;9.864;2023-07-31T12:33:38;8.88;;;4.22;;
20709;SDS011;10516;51.518;9.864;2023-07-31T12:36:11;7.72;;;4.22;;
20709;SDS011;10516;51.518;9.864;2023-07-31T12:38:39;6.15;;;4.13;;
20709;SDS011;10516;51.518;9.864;2023-07-31T12:41:04;5.57;;;3.78;;
20709;SDS011;10516;51.518;9.864;2023-07-31T12:43:32;5.32;;;3.58;;
20709;SDS011;10516;51.518;9.864;2023-07-31T12:45:57;5.25;;;3.28;;
20709;SDS011;10516;51.518;9.864;2023-07-31T12:48:23;5.22;;;4.05;;
20709;SDS011;10516;51.518;9.864;2023-07-31T12:50:48;11.07;;;4.18;;
20709;SDS011;10516;51.518;9.864;2023-07-31T12:53:14;4.63;;;3.40;;
20709;SDS011;10516;51.518;9.864;2023-07-31T12:55:40;6.45;;;3.35;;
20709;SDS011;10516;51.518;9.864;2023-07-31T12:58:06;6.35;;;3.58;;
20709;SDS011;10516;51.518;9.864;2023-07-31T13:00:31;4.50;;;3.30;;
20709;SDS011;10516;51.518;9.864;2023-07-31T13:02:56;5.68;;;3.30;;
20709;SDS011;10516;51.518;9.864;2023-07-31T13:05:22;4.88;;;3.67;;
20709;SDS011;10516;51.518;9.864;2023-07-31T13:07:47;6.57;;;3.60;;
20709;SDS011;10516;51.518;9.864;2023-07-31T13:10:13;5.30;;;3.38;;
20709;SDS011;10516;51.518;9.864;2023-07-31T13:12:39;5.57;;;3.85;;
20709;SDS011;10516;51.518;9.864;2023-07-31T13:15:04;6.20;;;3.40;;
20709;SDS011;10516;51.518;9.864;2023-07-31T13:17:31;6.68;;;3.88;;
20709;SDS011;10516;51.518;9.864;2023-07-31T13:19:56;5.10;;;4.05;;
20709;SDS011;10516;51.518;9.864;2023-07-31T13:22:21;6.55;;;4.20;;
20709;SDS011;10516;51.518;9.864;2023-07-31T13:24:47;6.18;;;3.58;;
20709;SDS011;10516;51.518;9.864;2023-07-31T13:27:13;5.97;;;3.78;;
20709;SDS011;10516;51.518;9.864;2023-07-31T13:29:38;5.60;;;3.88;;
20709;SDS011;10516;51.518;9.864;2023-07-31T13:32:04;5.72;;;4.40;;
20709;SDS011;10516;51.518;9.864;2023-07-31T13:34:29;8.48;;;4.53;;
20709;SDS011;10516;51.518;9.864;2023-07-31T13:36:55;7.68;;;3.83;;
20709;SDS011;10516;51.518;9.864;2023-07-31T13:39:23;5.35;;;3.85;;
20709;SDS011;10516;51.518;9.864;2023-07-31T13:41:49;6.60;;;4.13;;
20709;SDS011;10516;51.518;9.864;2023-07-31T13:44:14;14.30;;;4.80;;
20709;SDS011;10516;51.518;9.864;2023-07-31T13:46:40;6.40;;;3.97;;
20709;SDS011;10516;51.518;9.864;2023-07-31T13:49:05;5.15;;;3.88;;
20709;SDS011;10516;51.518;9.864;2023-07-31T13:51:30;6.55;;;4.13;;
20709;SDS011;10516;51.518;9.864;2023-07-31T13:53:56;9.85;;;4.63;;
20709;SDS011;10516;51.518;9.864;2023-07-31T13:56:21;5.65;;;4.07;;
20709;SDS011;10516;51.518;9.864;2023-07-31T13:58:47;5.70;;;4.20;;
20709;SDS011;10516;51.518;9.864;2023-07-31T14:01:12;9.55;;;4.43;;
20709;SDS011;10516;51.518;9.864;2023-07-31T14:03:37;10.00;;;4.13;;
20709;SDS011;10516;51.518;9.864;2023-07-31T14:06:03;8.80;;;3.92;;
20709;SDS011;10516;51.518;9.864;2023-07-31T14:08:29;7.28;;;4.00;;
20709;SDS011;10516;51.518;9.864;2023-07-31T14:10:55;8.98;;;3.75;;
20709;SDS011;10516;51.518;9.864;2023-07-31T14:13:20;8.45;;;4.30;;
20709;SDS011;10516;51.518;9.864;2023-07-31T14:15:46;7.97;;;4.43;;
20709;SDS011;10516;51.518;9.864;2023-07-31T14:18:11;16.13;;;4.28;;
20709;SDS011;10516;51.518;9.864;2023-07-31T14:20:37;8.07;;;4.50;;
20709;SDS011;10516;51.518;9.864;2023-07-31T14:23:02;10.38;;;4.20;;
20709;SDS011;10516;51.518;9.864;2023-07-31T14:25:28;5.10;;;3.22;;
20709;SDS011;10516;51.518;9.864;2023-07-31T14:27:54;6.57;;;3.47;;
20709;SDS011;10516;51.518;9.864;2023-07-31T14:30:19;5.78;;;3.95;;
20709;SDS011;10516;51.518;9.864;2023-07-31T14:32:45;8.07;;;4.13;;
20709;SDS011;10516;51.518;9.864;2023-07-31T14:35:10;8.27;;;3.97;;
20709;SDS011;10516;51.518;9.864;2023-07-31T14:37:36;5.93;;;3.50;;
20709;SDS011;10516;51.518;9.864;2023-07-31T14:40:03;6.80;;;4.35;;
20709;SDS011;10516;51.518;9.864;2023-07-31T14:42:29;5.85;;;3.55;;
20709;SDS011;10516;51.518;9.864;2023-07-31T14:44:54;13.20;;;4.68;;
20709;SDS011;10516;51.518;9.864;2023-07-31T14:47:20;6.50;;;3.58;;
20709;SDS011;10516;51.518;9.864;2023-07-31T14:49:45;7.78;;;3.70;;
20709;SDS011;10516;51.518;9.864;2023-07-31T14:52:11;6.90;;;3.63;;
20709;SDS011;10516;51.518;9.864;2023-07-31T14:54:36;6.82;;;3.25;;